createdAt,value
2022-08-19T00:01:53.336Z,16.80
2022-08-19T00:04:23.532Z,13.83
2022-08-19T00:06:52.833Z,12.70
2022-08-19T00:09:22.324Z,12.37
2022-08-19T00:11:50.538Z,12.13
2022-08-19T00:14:19.458Z,12.20
2022-08-19T00:16:49.690Z,12.17
2022-08-19T00:19:18.499Z,12.37
2022-08-19T00:21:46.564Z,12.30
2022-08-19T00:24:16.526Z,11.70
2022-08-19T00:26:45.625Z,11.90
2022-08-19T00:29:16.015Z,11.70
2022-08-19T00:31:45.127Z,12.10
2022-08-19T00:34:15.192Z,11.77
2022-08-19T00:36:44.118Z,12.07
2022-08-19T00:39:12.921Z,11.63
2022-08-19T00:41:41.348Z,11.37
2022-08-19T00:44:11.947Z,11.07
2022-08-19T00:46:42.049Z,11.87
2022-08-19T00:49:15.719Z,11.73
2022-08-19T00:51:49.071Z,12.37
2022-08-19T00:54:17.725Z,11.50
2022-08-19T00:56:46.753Z,11.70
2022-08-19T00:59:16.465Z,11.17
2022-08-19T01:02:04.818Z,11.70
2022-08-19T01:04:32.916Z,12.20
2022-08-19T01:07:03.948Z,11.77
2022-08-19T01:09:33.075Z,11.57
2022-08-19T01:12:01.163Z,11.33
2022-08-19T01:14:29.203Z,12.60
2022-08-19T01:16:58.306Z,12.27
2022-08-19T01:19:31.363Z,12.60
2022-08-19T01:22:19.163Z,12.50
2022-08-19T01:24:50.582Z,11.93
2022-08-19T01:27:20.604Z,11.70
2022-08-19T01:29:48.935Z,11.70
2022-08-19T01:32:32.500Z,12.07
2022-08-19T01:35:03.142Z,12.13
2022-08-19T01:37:31.724Z,13.37
2022-08-19T01:40:01.226Z,12.17
2022-08-19T01:42:30.454Z,13.77
2022-08-19T01:44:59.601Z,12.93
2022-08-19T01:47:27.560Z,14.00
2022-08-19T01:49:55.729Z,13.37
2022-08-19T01:52:23.724Z,13.93
2022-08-19T01:54:51.708Z,15.67
2022-08-19T01:57:21.382Z,14.27
2022-08-19T01:59:49.442Z,15.17
2022-08-19T02:02:17.624Z,15.63
2022-08-19T02:04:46.825Z,18.07
2022-08-19T02:07:14.803Z,16.20
2022-08-19T02:09:42.816Z,15.97
2022-08-19T02:12:10.826Z,16.90
2022-08-19T02:14:40.232Z,14.70
2022-08-19T02:17:08.581Z,16.13
2022-08-19T02:19:36.723Z,15.00
2022-08-19T02:22:09.104Z,14.40
2022-08-19T02:24:37.254Z,15.30
2022-08-19T02:27:05.833Z,16.20
2022-08-19T02:29:33.892Z,17.70
2022-08-19T02:32:03.324Z,15.33
2022-08-19T02:34:31.293Z,15.57
2022-08-19T02:37:03.498Z,14.13
2022-08-19T02:39:30.864Z,14.33
2022-08-19T02:42:00.734Z,14.40
2022-08-19T02:44:31.845Z,14.07
2022-08-19T02:47:00.226Z,14.20
2022-08-19T02:49:29.688Z,15.17
2022-08-19T02:52:02.838Z,14.07
2022-08-19T02:54:31.322Z,13.87
2022-08-19T02:56:59.471Z,13.63
2022-08-19T02:59:27.705Z,14.27
2022-08-19T03:01:55.799Z,13.97
2022-08-19T03:04:24.390Z,14.17
2022-08-19T03:06:57.533Z,14.13
2022-08-19T03:09:27.569Z,14.03
2022-08-19T03:11:55.635Z,14.10
2022-08-19T03:14:24.229Z,14.50
2022-08-19T03:16:54.110Z,15.03
2022-08-19T03:19:23.350Z,14.83
2022-08-19T03:21:53.609Z,14.90
2022-08-19T03:24:22.423Z,14.70
2022-08-19T03:26:52.484Z,15.60
2022-08-19T03:29:30.747Z,14.77
2022-08-19T03:32:01.780Z,14.40
2022-08-19T03:34:33.046Z,14.23
2022-08-19T03:37:07.026Z,14.43
2022-08-19T03:39:35.242Z,14.23
2022-08-19T03:42:45.452Z,14.60
2022-08-19T03:44:51.757Z,14.83
2022-08-19T03:47:19.775Z,14.57
2022-08-19T03:49:48.165Z,14.63
2022-08-19T03:52:17.600Z,15.13
2022-08-19T03:54:45.978Z,13.63
2022-08-19T03:57:13.944Z,14.20
2022-08-19T03:59:41.958Z,14.80
2022-08-19T04:02:12.539Z,14.90
2022-08-19T04:04:42.649Z,13.47
2022-08-19T04:07:11.945Z,15.73
2022-08-19T04:09:41.356Z,15.93
2022-08-19T04:12:10.412Z,14.50
2022-08-19T04:14:38.457Z,15.20
2022-08-19T04:17:06.794Z,15.13
2022-08-19T04:19:36.192Z,16.53
2022-08-19T04:22:05.016Z,15.37
2022-08-19T04:24:33.407Z,14.83
2022-08-19T04:27:03.714Z,15.57
2022-08-19T04:29:32.016Z,17.10
2022-08-19T04:32:08.926Z,14.93
2022-08-19T04:35:02.654Z,15.37
2022-08-19T04:37:27.389Z,14.53
2022-08-19T04:40:14.876Z,15.90
2022-08-19T04:42:44.304Z,18.80
2022-08-19T04:45:15.723Z,15.67
2022-08-19T04:47:49.263Z,14.83
2022-08-19T04:50:26.548Z,14.40
2022-08-19T04:52:56.638Z,13.93
2022-08-19T04:55:26.417Z,14.80
2022-08-19T04:57:56.345Z,14.60
2022-08-19T05:00:24.632Z,13.73
2022-08-19T05:02:52.866Z,13.10
2022-08-19T05:05:21.910Z,15.63
2022-08-19T05:07:50.154Z,15.00
2022-08-19T05:10:18.263Z,13.43
2022-08-19T05:12:46.607Z,15.47
2022-08-19T05:15:16.214Z,17.43
2022-08-19T05:18:04.357Z,24.10
2022-08-19T05:20:50.035Z,18.83
2022-08-19T05:23:21.901Z,17.77
2022-08-19T05:25:51.341Z,14.83
2022-08-19T05:28:19.689Z,16.80
2022-08-19T05:30:51.829Z,16.43
2022-08-19T05:33:20.408Z,13.83
2022-08-19T05:35:50.345Z,15.23
2022-08-19T05:38:19.524Z,13.80
2022-08-19T05:40:49.237Z,14.07
2022-08-19T05:43:17.606Z,15.13
2022-08-19T05:45:46.001Z,13.63
2022-08-19T05:48:16.251Z,14.33
2022-08-19T05:50:45.449Z,13.20
2022-08-19T05:53:13.457Z,12.90
2022-08-19T05:55:41.538Z,12.67
2022-08-19T05:58:09.712Z,12.73
2022-08-19T06:00:38.401Z,14.70
2022-08-19T06:03:11.727Z,15.37
2022-08-19T06:05:52.108Z,14.00
2022-08-19T06:08:34.372Z,13.40
2022-08-19T06:11:19.755Z,13.40
2022-08-19T06:13:50.549Z,14.37
2022-08-19T06:16:23.383Z,13.98
2022-08-19T06:18:53.668Z,13.87
2022-08-19T06:21:28.205Z,12.53
2022-08-19T06:23:57.694Z,12.67
2022-08-19T06:26:27.415Z,15.17
2022-08-19T06:28:55.685Z,13.73
2022-08-19T06:31:26.799Z,12.10
2022-08-19T06:33:56.446Z,14.07
2022-08-19T06:36:32.707Z,12.37
2022-08-19T06:39:01.181Z,12.97
2022-08-19T06:41:29.630Z,12.77
2022-08-19T06:43:57.892Z,13.00
2022-08-19T06:46:27.422Z,11.50
2022-08-19T06:48:56.053Z,12.17
2022-08-19T06:51:26.497Z,12.77
2022-08-19T06:54:00.716Z,12.63
2022-08-19T06:56:35.757Z,12.13
2022-08-19T06:59:05.380Z,12.30
2022-08-19T07:01:38.426Z,13.25
2022-08-19T07:04:08.358Z,13.23
2022-08-19T07:06:44.226Z,11.70
2022-08-19T07:09:18.507Z,11.57
2022-08-19T07:11:48.062Z,12.43
2022-08-19T07:14:19.451Z,12.43
2022-08-19T07:16:48.699Z,11.43
2022-08-19T07:19:18.900Z,12.70
2022-08-19T07:21:49.770Z,11.73
2022-08-19T07:24:19.282Z,11.73
2022-08-19T07:26:51.969Z,13.40
2022-08-19T07:29:25.803Z,12.80
2022-08-19T07:32:00.133Z,15.43
2022-08-19T07:34:30.460Z,13.33
2022-08-19T07:37:00.562Z,11.67
2022-08-19T07:39:32.060Z,13.13
2022-08-19T07:42:02.063Z,11.97
2022-08-19T07:44:30.524Z,12.07
2022-08-19T07:47:00.970Z,13.10
2022-08-19T07:49:29.223Z,13.70
2022-08-19T07:52:02.322Z,12.77
2022-08-19T07:54:32.744Z,11.57
2022-08-19T07:57:00.987Z,15.07
2022-08-19T07:59:30.121Z,14.73
2022-08-19T08:02:00.645Z,13.37
2022-08-19T08:04:47.107Z,12.27
2022-08-19T08:07:34.172Z,13.17
2022-08-19T08:10:03.675Z,14.23
2022-08-19T08:12:36.788Z,13.93
2022-08-19T08:15:12.759Z,12.33
2022-08-19T08:17:49.242Z,13.23
2022-08-19T08:20:20.750Z,13.33
2022-08-19T08:23:08.198Z,13.27
2022-08-19T08:25:37.516Z,16.20
2022-08-19T08:28:06.627Z,13.33
2022-08-19T08:30:36.918Z,11.53
2022-08-19T08:33:05.616Z,12.20
2022-08-19T08:35:34.503Z,14.83
2022-08-19T08:38:05.302Z,14.40
2022-08-19T08:40:41.651Z,12.07
2022-08-19T08:43:23.980Z,14.90
2022-08-19T08:46:02.078Z,13.67
2022-08-19T08:48:38.092Z,12.83
2022-08-19T08:51:09.729Z,12.70
2022-08-19T08:53:42.068Z,13.67
2022-08-19T08:56:14.062Z,13.30
2022-08-19T08:58:54.699Z,14.50
2022-08-19T09:01:30.215Z,17.30
2022-08-19T09:04:02.777Z,14.60
2022-08-19T09:06:40.741Z,13.03
2022-08-19T09:09:16.853Z,13.83
2022-08-19T09:11:56.109Z,13.73
2022-08-19T09:14:52.318Z,13.10
2022-08-19T09:17:29.234Z,13.17
2022-08-19T09:19:59.846Z,11.53
2022-08-19T09:22:30.089Z,11.47
2022-08-19T09:24:59.447Z,11.40
2022-08-19T09:27:42.252Z,11.73
2022-08-19T09:30:16.134Z,11.00
2022-08-19T09:32:45.054Z,11.77
2022-08-19T09:35:14.921Z,14.67
2022-08-19T09:37:44.832Z,12.10
2022-08-19T09:40:15.410Z,13.67
2022-08-19T09:42:49.635Z,13.23
2022-08-19T09:45:22.252Z,13.15
2022-08-19T09:47:53.959Z,14.67
2022-08-19T09:50:24.813Z,12.63
2022-08-19T09:52:57.126Z,11.83
2022-08-19T09:55:31.580Z,12.30
2022-08-19T09:58:03.268Z,13.13
2022-08-19T10:00:32.449Z,11.53
2022-08-19T10:03:00.988Z,11.97
2022-08-19T10:05:48.394Z,11.97
2022-08-19T10:08:18.153Z,11.53
2022-08-19T10:10:48.839Z,12.07
2022-08-19T10:13:22.989Z,11.63
2022-08-19T10:15:52.480Z,11.00
2022-08-19T10:18:22.745Z,11.23
2022-08-19T10:20:53.546Z,11.27
2022-08-19T10:23:23.320Z,11.67
2022-08-19T10:25:54.623Z,11.63
2022-08-19T10:28:24.005Z,11.47
2022-08-19T10:30:52.130Z,11.47
2022-08-19T10:33:38.437Z,11.23
2022-08-19T10:36:12.179Z,11.70
2022-08-19T10:38:40.384Z,11.80
2022-08-19T10:41:24.509Z,11.50
2022-08-19T10:43:55.416Z,11.90
2022-08-19T10:46:25.259Z,10.77
2022-08-19T10:48:53.804Z,11.53
2022-08-19T10:51:47.860Z,10.83
2022-08-19T10:54:16.427Z,11.93
2022-08-19T10:56:53.916Z,12.03
2022-08-19T10:59:26.976Z,11.10
2022-08-19T11:01:56.744Z,10.57
2022-08-19T11:04:28.939Z,11.50
2022-08-19T11:06:58.542Z,10.97
2022-08-19T11:09:33.974Z,10.60
2022-08-19T11:12:04.725Z,11.33
2022-08-19T11:14:34.947Z,11.10
2022-08-19T11:17:03.868Z,11.07
2022-08-19T11:19:32.129Z,13.37
2022-08-19T11:22:02.378Z,11.93
2022-08-19T11:24:32.862Z,10.10
2022-08-19T11:27:08.400Z,10.10
2022-08-19T11:29:37.328Z,10.37
2022-08-19T11:32:08.125Z,10.27
2022-08-19T11:34:36.422Z,10.97
2022-08-19T11:37:05.358Z,11.77
2022-08-19T11:39:35.364Z,11.03
2022-08-19T11:42:26.162Z,10.30
2022-08-19T11:44:54.986Z,10.90
2022-08-19T11:47:23.163Z,11.67
2022-08-19T11:49:51.196Z,12.47
2022-08-19T11:52:19.322Z,10.80
2022-08-19T11:54:47.285Z,11.07
2022-08-19T11:57:18.041Z,12.23
2022-08-19T11:59:50.791Z,13.40
2022-08-19T12:02:20.058Z,14.00
2022-08-19T12:04:48.452Z,12.33
2022-08-19T12:07:16.795Z,12.77
2022-08-19T12:09:44.885Z,11.37
2022-08-19T12:12:14.327Z,11.73
2022-08-19T12:14:43.721Z,11.47
2022-08-19T12:17:12.468Z,11.73
2022-08-19T12:19:41.940Z,11.83
2022-08-19T12:22:10.588Z,13.30
2022-08-19T12:24:38.596Z,14.90
2022-08-19T12:27:06.710Z,13.33
2022-08-19T12:29:42.561Z,12.50
2022-08-19T12:32:12.420Z,12.20
2022-08-19T12:34:40.993Z,13.60
2022-08-19T12:37:09.602Z,12.73
2022-08-19T12:39:40.192Z,12.80
2022-08-19T12:42:09.770Z,12.00
2022-08-19T12:44:38.739Z,12.20
2022-08-19T12:47:12.582Z,11.63
2022-08-19T12:49:54.234Z,13.80
2022-08-19T12:52:26.278Z,11.07
2022-08-19T12:54:56.210Z,14.00
2022-08-19T12:57:32.975Z,17.33
2022-08-19T13:00:05.449Z,11.97
2022-08-19T13:02:38.772Z,11.57
2022-08-19T13:05:09.689Z,11.40
2022-08-19T13:07:38.413Z,10.43
2022-08-19T13:10:08.093Z,11.47
2022-08-19T13:12:36.282Z,10.70
2022-08-19T13:15:10.953Z,13.63
2022-08-19T13:17:42.144Z,13.80
2022-08-19T13:20:14.874Z,18.23
2022-08-19T13:22:43.421Z,15.13
2022-08-19T13:25:13.000Z,13.10
2022-08-19T13:27:41.938Z,11.33
2022-08-19T13:30:30.948Z,11.53
2022-08-19T13:33:18.752Z,11.30
2022-08-19T13:35:49.533Z,12.98
2022-08-19T13:38:21.489Z,10.77
2022-08-19T13:40:51.366Z,11.63
2022-08-19T13:43:23.435Z,10.50
2022-08-19T13:45:54.834Z,10.20
2022-08-19T13:48:25.176Z,15.73
2022-08-19T13:50:53.320Z,11.50
2022-08-19T13:53:21.340Z,11.43
2022-08-19T13:55:50.947Z,11.67
2022-08-19T13:58:18.920Z,12.00
2022-08-19T14:00:49.391Z,11.67
2022-08-19T14:03:17.961Z,10.73
2022-08-19T14:05:47.753Z,10.93
2022-08-19T14:08:15.858Z,10.75
2022-08-19T14:10:45.490Z,12.30
2022-08-19T14:13:17.561Z,12.03
2022-08-19T14:15:46.404Z,11.47
2022-08-19T14:18:14.427Z,10.60
2022-08-19T14:20:43.048Z,10.10
2022-08-19T14:23:13.280Z,11.43
2022-08-19T14:25:41.287Z,11.37
2022-08-19T14:28:09.578Z,11.20
2022-08-19T14:30:39.730Z,11.17
2022-08-19T14:33:09.445Z,12.13
2022-08-19T14:35:38.108Z,11.97
2022-08-19T14:38:09.183Z,11.43
2022-08-19T14:40:41.616Z,11.40
2022-08-19T14:43:09.940Z,10.10
2022-08-19T14:45:40.984Z,12.87
2022-08-19T14:48:18.972Z,13.07
2022-08-19T14:50:47.640Z,11.80
2022-08-19T14:53:15.683Z,11.53
2022-08-19T14:55:46.171Z,10.43
2022-08-19T14:58:29.419Z,12.23
2022-08-19T15:00:59.871Z,10.98
2022-08-19T15:03:28.172Z,12.07
2022-08-19T15:05:57.573Z,11.17
2022-08-19T15:08:26.478Z,12.17
2022-08-19T15:10:58.251Z,10.37
2022-08-19T15:13:27.586Z,10.50
2022-08-19T15:15:56.422Z,10.77
2022-08-19T15:18:24.411Z,10.43
2022-08-19T15:20:53.404Z,10.37
2022-08-19T15:23:22.504Z,10.00
2022-08-19T15:25:56.567Z,10.50
2022-08-19T15:28:29.366Z,14.30
2022-08-19T15:30:57.564Z,13.40
2022-08-19T15:33:25.612Z,12.23
2022-08-19T15:35:54.103Z,11.00
2022-08-19T15:38:24.476Z,10.70
2022-08-19T15:40:52.946Z,11.10
2022-08-19T15:43:22.817Z,11.23
2022-08-19T15:45:52.261Z,11.33
2022-08-19T15:48:20.257Z,10.57
2022-08-19T15:50:48.422Z,11.50
2022-08-19T15:53:17.615Z,12.57
2022-08-19T15:55:48.657Z,11.90
2022-08-19T15:58:34.498Z,11.10
2022-08-19T16:01:24.388Z,11.37
2022-08-19T16:04:15.532Z,12.37
2022-08-19T16:06:48.777Z,10.93
2022-08-19T16:09:18.630Z,10.43
2022-08-19T16:11:56.635Z,11.30
2022-08-19T16:14:26.307Z,11.17
2022-08-19T16:16:56.987Z,11.30
2022-08-19T16:19:25.587Z,11.97
2022-08-19T16:21:56.353Z,13.23
2022-08-19T16:24:26.869Z,13.40
2022-08-19T16:26:55.178Z,11.83
2022-08-19T16:29:33.554Z,12.30
2022-08-19T16:32:04.791Z,11.50
2022-08-19T16:34:33.845Z,11.53
2022-08-19T16:37:02.863Z,11.33
2022-08-19T16:39:31.209Z,11.47
2022-08-19T16:41:59.321Z,11.57
2022-08-19T16:44:29.459Z,12.10
2022-08-19T16:46:59.536Z,11.33
2022-08-19T16:49:53.976Z,11.93
2022-08-19T16:52:19.571Z,11.80
2022-08-19T16:54:48.031Z,12.37
2022-08-19T16:57:16.179Z,11.20
2022-08-19T16:59:49.348Z,11.70
2022-08-19T17:02:18.109Z,16.67
2022-08-19T17:04:57.546Z,14.27
2022-08-19T17:07:26.546Z,12.93
2022-08-19T17:09:55.141Z,16.07
2022-08-19T17:12:30.394Z,17.70
2022-08-19T17:15:00.733Z,16.33
2022-08-19T17:17:29.574Z,12.83
2022-08-19T17:20:00.487Z,12.40
2022-08-19T17:22:28.619Z,15.40
2022-08-19T17:24:58.222Z,12.03
2022-08-19T17:27:31.352Z,12.40
2022-08-19T17:30:00.936Z,11.77
2022-08-19T17:32:29.052Z,12.57
2022-08-19T17:34:58.868Z,11.57
2022-08-19T17:37:27.360Z,12.17
2022-08-19T17:39:55.635Z,13.93
2022-08-19T17:42:24.047Z,14.90
2022-08-19T17:44:52.081Z,13.77
2022-08-19T17:47:21.214Z,13.87
2022-08-19T17:49:49.594Z,12.70
2022-08-19T17:52:19.359Z,12.50
2022-08-19T17:54:47.859Z,11.70
2022-08-19T17:57:16.319Z,12.53
2022-08-19T17:59:44.734Z,11.90
2022-08-19T18:02:13.317Z,12.83
2022-08-19T18:04:46.885Z,12.67
2022-08-19T18:07:21.667Z,12.27
2022-08-19T18:09:52.743Z,12.80
2022-08-19T18:12:24.596Z,13.40
2022-08-19T18:14:52.625Z,12.53
2022-08-19T18:17:23.278Z,16.17
2022-08-19T18:19:51.575Z,38.15
2022-08-19T18:22:27.445Z,27.70
2022-08-19T18:24:56.431Z,15.23
2022-08-19T18:27:24.641Z,13.70
2022-08-19T18:29:54.586Z,14.00
2022-08-19T18:32:24.048Z,19.07
2022-08-19T18:34:53.050Z,28.73
2022-08-19T18:37:21.307Z,16.23
2022-08-19T18:40:08.225Z,28.70
2022-08-19T18:42:54.090Z,14.83
2022-08-19T18:45:39.545Z,13.57
2022-08-19T18:48:29.123Z,13.40
2022-08-19T18:50:59.246Z,15.37
2022-08-19T18:53:29.614Z,13.57
2022-08-19T18:55:59.797Z,14.17
2022-08-19T18:58:32.390Z,14.33
2022-08-19T19:01:02.959Z,13.57
2022-08-19T19:03:31.106Z,13.97
2022-08-19T19:05:59.621Z,12.67
2022-08-19T19:08:28.189Z,12.53
2022-08-19T19:11:01.037Z,12.77
2022-08-19T19:13:29.922Z,13.33
2022-08-19T19:16:01.317Z,13.37
2022-08-19T19:18:29.683Z,13.10
2022-08-19T19:20:58.469Z,13.83
2022-08-19T19:23:26.804Z,12.67
2022-08-19T19:25:54.877Z,14.57
2022-08-19T19:28:28.138Z,13.90
2022-08-19T19:30:58.777Z,12.27
2022-08-19T19:33:27.058Z,12.73
2022-08-19T19:35:55.463Z,13.83
2022-08-19T19:38:23.524Z,12.40
2022-08-19T19:40:51.589Z,13.03
2022-08-19T19:43:19.589Z,13.60
2022-08-19T19:45:50.130Z,14.13
2022-08-19T19:48:18.307Z,14.87
2022-08-19T19:50:53.288Z,12.57
2022-08-19T19:53:26.180Z,12.93
2022-08-19T19:55:57.715Z,12.10
2022-08-19T19:58:28.811Z,14.63
2022-08-19T20:00:59.400Z,13.00
2022-08-19T20:03:27.686Z,12.07
2022-08-19T20:05:59.554Z,11.63
2022-08-19T20:08:45.829Z,11.70
2022-08-19T20:11:16.895Z,12.03
2022-08-19T20:13:44.947Z,12.50
2022-08-19T20:16:14.266Z,11.50
2022-08-19T20:18:44.106Z,12.30
2022-08-19T20:21:13.636Z,12.93
2022-08-19T20:23:41.629Z,13.27
2022-08-19T20:26:19.284Z,12.32
2022-08-19T20:29:01.296Z,13.30
2022-08-19T20:31:57.375Z,12.80
2022-08-19T20:34:27.835Z,12.13
2022-08-19T20:36:55.960Z,11.80
2022-08-19T20:39:24.631Z,13.13
2022-08-19T20:41:56.422Z,11.93
2022-08-19T20:44:26.910Z,11.90
2022-08-19T20:47:00.493Z,13.37
2022-08-19T20:49:31.104Z,11.77
2022-08-19T20:51:59.414Z,12.60
2022-08-19T20:54:28.334Z,12.47
2022-08-19T20:56:56.993Z,12.97
2022-08-19T20:59:25.897Z,12.73
2022-08-19T21:01:56.482Z,12.37
2022-08-19T21:04:24.590Z,11.87
2022-08-19T21:06:52.593Z,12.50
2022-08-19T21:09:20.619Z,12.70
2022-08-19T21:11:48.993Z,11.90
2022-08-19T21:14:17.252Z,11.03
2022-08-19T21:16:45.249Z,13.27
2022-08-19T21:19:14.645Z,14.10
2022-08-19T21:21:42.667Z,13.67
2022-08-19T21:24:10.662Z,13.00
2022-08-19T21:26:38.669Z,12.90
2022-08-19T21:29:07.018Z,12.63
2022-08-19T21:31:35.137Z,11.77
2022-08-19T21:34:03.389Z,10.97
2022-08-19T21:36:32.885Z,12.30
2022-08-19T21:39:00.823Z,12.90
2022-08-19T21:41:28.950Z,12.57
2022-08-19T21:43:57.092Z,12.03
2022-08-19T21:46:25.291Z,13.03
2022-08-19T21:48:53.336Z,12.47
2022-08-19T21:51:21.477Z,12.38
2022-08-19T21:53:52.848Z,10.93
2022-08-19T21:56:21.195Z,11.93
2022-08-19T21:58:49.200Z,12.40
2022-08-19T22:01:17.389Z,12.17
2022-08-19T22:03:45.560Z,12.23
2022-08-19T22:06:13.510Z,12.80
2022-08-19T22:08:42.245Z,12.50
2022-08-19T22:11:12.109Z,11.60
2022-08-19T22:13:41.709Z,13.50
2022-08-19T22:16:11.189Z,12.60
2022-08-19T22:18:39.326Z,12.67
2022-08-19T22:21:11.707Z,11.93
2022-08-19T22:23:40.769Z,12.57
2022-08-19T22:26:09.180Z,12.67
2022-08-19T22:28:39.600Z,12.20
2022-08-19T22:31:08.460Z,12.70
2022-08-19T22:33:38.355Z,11.90
2022-08-19T22:36:07.538Z,12.87
2022-08-19T22:38:37.430Z,13.00
2022-08-19T22:41:07.654Z,12.73
2022-08-19T22:43:36.917Z,11.83
2022-08-19T22:46:15.053Z,14.77
2022-08-19T22:48:46.438Z,16.47
2022-08-19T22:51:31.621Z,12.87
2022-08-19T22:53:59.675Z,11.27
2022-08-19T22:56:27.805Z,11.53
2022-08-19T22:58:55.861Z,11.43
2022-08-19T23:01:30.433Z,12.70
2022-08-19T23:04:00.138Z,13.53
2022-08-19T23:06:33.849Z,12.03
2022-08-19T23:09:04.842Z,11.70
2022-08-19T23:11:38.055Z,11.67
2022-08-19T23:14:10.450Z,12.90
2022-08-19T23:16:41.680Z,13.60
2022-08-19T23:19:10.171Z,12.80
2022-08-19T23:21:38.427Z,14.33
2022-08-19T23:24:06.890Z,14.07
2022-08-19T23:26:36.113Z,13.23
2022-08-19T23:29:22.788Z,11.90
2022-08-19T23:31:52.661Z,13.10
2022-08-19T23:34:20.705Z,16.65
2022-08-19T23:36:50.744Z,14.27
2022-08-19T23:39:19.428Z,14.27
2022-08-19T23:41:47.640Z,12.37
2022-08-19T23:44:15.681Z,13.07
2022-08-19T23:46:54.546Z,15.50
2022-08-19T23:49:25.621Z,13.57
2022-08-19T23:51:55.071Z,13.60
2022-08-19T23:54:23.379Z,12.87
2022-08-19T23:57:02.342Z,12.83
2022-08-19T23:59:30.317Z,12.55
